sensor_id;sensor_type;location;lat;lon;timestamp;P1;durP1;ratioP1;P2;durP2;ratioP2
55210;SDS011;41082;52.822;6.666;2022-07-01T00:01:18;3.10;;;0.30;;
55210;SDS011;41082;52.822;6.666;2022-07-01T00:03:44;3.55;;;0.35;;
55210;SDS011;41082;52.822;6.666;2022-07-01T00:06:14;2.28;;;0.30;;
55210;SDS011;41082;52.822;6.666;2022-07-01T00:08:40;3.78;;;0.30;;
55210;SDS011;41082;52.822;6.666;2022-07-01T00:11:06;2.13;;;0.22;;
55210;SDS011;41082;52.822;6.666;2022-07-01T00:13:32;2.45;;;0.40;;
55210;SDS011;41082;52.822;6.666;2022-07-01T00:15:58;3.00;;;0.30;;
55210;SDS011;41082;52.822;6.666;2022-07-01T00:18:24;2.00;;;0.30;;
55210;SDS011;41082;52.822;6.666;2022-07-01T00:20:50;4.32;;;0.40;;
55210;SDS011;41082;52.822;6.666;2022-07-01T00:23:16;2.33;;;0.32;;
55210;SDS011;41082;52.822;6.666;2022-07-01T00:25:42;6.30;;;0.47;;
55210;SDS011;41082;52.822;6.666;2022-07-01T00:28:08;1.98;;;1.15;;
55210;SDS011;41082;52.822;6.666;2022-07-01T00:30:34;1.90;;;0.30;;
55210;SDS011;41082;52.822;6.666;2022-07-01T00:33:00;3.53;;;0.30;;
55210;SDS011;41082;52.822;6.666;2022-07-01T00:35:25;7.30;;;0.60;;
55210;SDS011;41082;52.822;6.666;2022-07-01T00:37:51;2.47;;;0.40;;
55210;SDS011;41082;52.822;6.666;2022-07-01T00:40:16;2.75;;;0.30;;
55210;SDS011;41082;52.822;6.666;2022-07-01T00:42:42;2.53;;;0.20;;
55210;SDS011;41082;52.822;6.666;2022-07-01T00:45:09;2.47;;;0.38;;
55210;SDS011;41082;52.822;6.666;2022-07-01T00:47:35;1.75;;;0.45;;
55210;SDS011;41082;52.822;6.666;2022-07-01T00:50:06;3.73;;;0.30;;
55210;SDS011;41082;52.822;6.666;2022-07-01T00:52:35;1.65;;;0.40;;
55210;SDS011;41082;52.822;6.666;2022-07-01T00:55:04;1.50;;;0.40;;
55210;SDS011;41082;52.822;6.666;2022-07-01T00:57:33;1.17;;;0.30;;
55210;SDS011;41082;52.822;6.666;2022-07-01T01:00:03;1.70;;;0.22;;
55210;SDS011;41082;52.822;6.666;2022-07-01T01:02:34;2.92;;;0.20;;
55210;SDS011;41082;52.822;6.666;2022-07-01T01:05:00;2.50;;;0.20;;
55210;SDS011;41082;52.822;6.666;2022-07-01T01:07:26;2.47;;;0.30;;
55210;SDS011;41082;52.822;6.666;2022-07-01T01:09:51;2.05;;;0.40;;
55210;SDS011;41082;52.822;6.666;2022-07-01T01:12:17;0.50;;;0.20;;
55210;SDS011;41082;52.822;6.666;2022-07-01T01:14:47;0.60;;;0.20;;
55210;SDS011;41082;52.822;6.666;2022-07-01T01:17:13;1.67;;;0.20;;
55210;SDS011;41082;52.822;6.666;2022-07-01T01:19:40;0.98;;;0.32;;
55210;SDS011;41082;52.822;6.666;2022-07-01T01:22:07;3.47;;;0.13;;
55210;SDS011;41082;52.822;6.666;2022-07-01T01:24:33;4.25;;;0.20;;
55210;SDS011;41082;52.822;6.666;2022-07-01T01:26:58;1.23;;;0.20;;
55210;SDS011;41082;52.822;6.666;2022-07-01T01:29:24;0.82;;;0.20;;
55210;SDS011;41082;52.822;6.666;2022-07-01T01:31:49;0.77;;;0.28;;
55210;SDS011;41082;52.822;6.666;2022-07-01T01:34:15;1.85;;;0.20;;
55210;SDS011;41082;52.822;6.666;2022-07-01T01:36:41;1.90;;;0.20;;
55210;SDS011;41082;52.822;6.666;2022-07-01T01:39:07;2.08;;;0.20;;
55210;SDS011;41082;52.822;6.666;2022-07-01T01:41:42;1.13;;;0.20;;
55210;SDS011;41082;52.822;6.666;2022-07-01T01:44:09;0.88;;;0.20;;
55210;SDS011;41082;52.822;6.666;2022-07-01T01:46:34;1.35;;;0.40;;
55210;SDS011;41082;52.822;6.666;2022-07-01T01:49:01;2.15;;;0.20;;
55210;SDS011;41082;52.822;6.666;2022-07-01T01:51:28;1.98;;;0.28;;
55210;SDS011;41082;52.822;6.666;2022-07-01T01:53:53;1.02;;;0.25;;
55210;SDS011;41082;52.822;6.666;2022-07-01T01:56:20;0.95;;;0.47;;
55210;SDS011;41082;52.822;6.666;2022-07-01T01:58:46;1.55;;;0.30;;
55210;SDS011;41082;52.822;6.666;2022-07-01T02:01:12;2.97;;;0.40;;
55210;SDS011;41082;52.822;6.666;2022-07-01T02:03:39;1.83;;;0.43;;
55210;SDS011;41082;52.822;6.666;2022-07-01T02:06:06;2.05;;;0.30;;
55210;SDS011;41082;52.822;6.666;2022-07-01T02:08:32;1.85;;;0.70;;
55210;SDS011;41082;52.822;6.666;2022-07-01T02:10:58;3.25;;;0.50;;
55210;SDS011;41082;52.822;6.666;2022-07-01T02:13:24;1.02;;;0.40;;
55210;SDS011;41082;52.822;6.666;2022-07-01T02:15:50;0.90;;;0.38;;
55210;SDS011;41082;52.822;6.666;2022-07-01T02:18:16;1.88;;;0.68;;
55210;SDS011;41082;52.822;6.666;2022-07-01T02:20:42;3.83;;;0.40;;
55210;SDS011;41082;52.822;6.666;2022-07-01T02:23:08;2.40;;;0.60;;
55210;SDS011;41082;52.822;6.666;2022-07-01T02:25:34;1.60;;;0.32;;
55210;SDS011;41082;52.822;6.666;2022-07-01T02:28:01;2.92;;;0.52;;
55210;SDS011;41082;52.822;6.666;2022-07-01T02:30:27;0.95;;;0.30;;
55210;SDS011;41082;52.822;6.666;2022-07-01T02:32:53;1.42;;;0.35;;
55210;SDS011;41082;52.822;6.666;2022-07-01T02:35:19;2.75;;;0.40;;
55210;SDS011;41082;52.822;6.666;2022-07-01T02:37:44;2.00;;;0.43;;
55210;SDS011;41082;52.822;6.666;2022-07-01T02:40:10;5.38;;;1.15;;
55210;SDS011;41082;52.822;6.666;2022-07-01T02:42:38;1.77;;;0.98;;
55210;SDS011;41082;52.822;6.666;2022-07-01T02:45:04;2.13;;;1.00;;
55210;SDS011;41082;52.822;6.666;2022-07-01T02:47:32;2.92;;;1.27;;
55210;SDS011;41082;52.822;6.666;2022-07-01T02:49:58;4.50;;;3.70;;
55210;SDS011;41082;52.822;6.666;2022-07-01T02:52:24;5.38;;;4.05;;
55210;SDS011;41082;52.822;6.666;2022-07-01T02:54:50;7.65;;;6.35;;
55210;SDS011;41082;52.822;6.666;2022-07-01T02:57:15;8.25;;;7.43;;
55210;SDS011;41082;52.822;6.666;2022-07-01T02:59:41;11.35;;;10.07;;
55210;SDS011;41082;52.822;6.666;2022-07-01T03:02:06;12.90;;;9.93;;
55210;SDS011;41082;52.822;6.666;2022-07-01T03:04:32;11.50;;;9.88;;
55210;SDS011;41082;52.822;6.666;2022-07-01T03:06:57;11.73;;;9.73;;
55210;SDS011;41082;52.822;6.666;2022-07-01T03:09:23;10.93;;;9.82;;
55210;SDS011;41082;52.822;6.666;2022-07-01T03:11:49;10.98;;;9.45;;
55210;SDS011;41082;52.822;6.666;2022-07-01T03:14:15;10.95;;;8.90;;
55210;SDS011;41082;52.822;6.666;2022-07-01T03:16:40;10.68;;;9.30;;
55210;SDS011;41082;52.822;6.666;2022-07-01T03:19:06;9.98;;;8.98;;
55210;SDS011;41082;52.822;6.666;2022-07-01T03:21:32;9.10;;;8.20;;
55210;SDS011;41082;52.822;6.666;2022-07-01T03:23:58;9.80;;;7.90;;
55210;SDS011;41082;52.822;6.666;2022-07-01T03:26:23;8.57;;;7.68;;
55210;SDS011;41082;52.822;6.666;2022-07-01T03:28:49;12.32;;;8.05;;
55210;SDS011;41082;52.822;6.666;2022-07-01T03:31:14;10.40;;;8.38;;
55210;SDS011;41082;52.822;6.666;2022-07-01T03:33:40;9.57;;;7.85;;
55210;SDS011;41082;52.822;6.666;2022-07-01T03:36:06;9.60;;;8.60;;
55210;SDS011;41082;52.822;6.666;2022-07-01T03:38:32;8.88;;;7.97;;
55210;SDS011;41082;52.822;6.666;2022-07-01T03:40:57;9.38;;;7.80;;
55210;SDS011;41082;52.822;6.666;2022-07-01T03:43:23;9.55;;;8.00;;
55210;SDS011;41082;52.822;6.666;2022-07-01T03:45:48;9.73;;;8.70;;
55210;SDS011;41082;52.822;6.666;2022-07-01T03:48:14;11.88;;;9.02;;
55210;SDS011;41082;52.822;6.666;2022-07-01T03:50:41;10.40;;;9.32;;
55210;SDS011;41082;52.822;6.666;2022-07-01T03:53:06;10.88;;;9.02;;
55210;SDS011;41082;52.822;6.666;2022-07-01T03:55:51;12.30;;;9.95;;
55210;SDS011;41082;52.822;6.666;2022-07-01T03:58:16;12.40;;;9.93;;
55210;SDS011;41082;52.822;6.666;2022-07-01T04:00:42;13.98;;;12.45;;
55210;SDS011;41082;52.822;6.666;2022-07-01T04:03:07;14.43;;;12.63;;
55210;SDS011;41082;52.822;6.666;2022-07-01T04:05:33;15.93;;;13.82;;
55210;SDS011;41082;52.822;6.666;2022-07-01T04:08:00;16.42;;;14.52;;
55210;SDS011;41082;52.822;6.666;2022-07-01T04:10:27;16.00;;;14.30;;
55210;SDS011;41082;52.822;6.666;2022-07-01T04:12:58;17.30;;;15.20;;
55210;SDS011;41082;52.822;6.666;2022-07-01T04:15:25;18.50;;;16.58;;
55210;SDS011;41082;52.822;6.666;2022-07-01T04:17:51;17.35;;;15.40;;
55210;SDS011;41082;52.822;6.666;2022-07-01T04:20:16;18.85;;;15.85;;
55210;SDS011;41082;52.822;6.666;2022-07-01T04:22:42;18.30;;;15.10;;
55210;SDS011;41082;52.822;6.666;2022-07-01T04:25:08;17.38;;;15.35;;
55210;SDS011;41082;52.822;6.666;2022-07-01T04:27:33;16.13;;;14.48;;
55210;SDS011;41082;52.822;6.666;2022-07-01T04:29:59;17.88;;;14.80;;
55210;SDS011;41082;52.822;6.666;2022-07-01T04:32:27;19.23;;;16.58;;
55210;SDS011;41082;52.822;6.666;2022-07-01T04:34:53;21.52;;;17.90;;
55210;SDS011;41082;52.822;6.666;2022-07-01T04:37:18;18.63;;;16.65;;
55210;SDS011;41082;52.822;6.666;2022-07-01T04:39:44;21.15;;;18.70;;
55210;SDS011;41082;52.822;6.666;2022-07-01T04:42:10;19.58;;;16.85;;
55210;SDS011;41082;52.822;6.666;2022-07-01T04:44:36;21.60;;;18.70;;
55210;SDS011;41082;52.822;6.666;2022-07-01T04:47:03;21.35;;;16.98;;
55210;SDS011;41082;52.822;6.666;2022-07-01T04:49:29;20.50;;;18.30;;
55210;SDS011;41082;52.822;6.666;2022-07-01T04:51:56;19.48;;;17.42;;
55210;SDS011;41082;52.822;6.666;2022-07-01T04:54:22;19.25;;;17.23;;
55210;SDS011;41082;52.822;6.666;2022-07-01T04:56:50;20.17;;;18.00;;
55210;SDS011;41082;52.822;6.666;2022-07-01T04:59:17;20.38;;;17.83;;
55210;SDS011;41082;52.822;6.666;2022-07-01T05:01:44;19.45;;;17.35;;
55210;SDS011;41082;52.822;6.666;2022-07-01T05:04:11;24.73;;;19.38;;
55210;SDS011;41082;52.822;6.666;2022-07-01T05:06:37;21.88;;;19.50;;
55210;SDS011;41082;52.822;6.666;2022-07-01T05:09:03;20.15;;;18.17;;
55210;SDS011;41082;52.822;6.666;2022-07-01T05:11:29;22.77;;;19.35;;
55210;SDS011;41082;52.822;6.666;2022-07-01T05:13:55;20.90;;;18.70;;
55210;SDS011;41082;52.822;6.666;2022-07-01T05:16:21;21.15;;;18.95;;
55210;SDS011;41082;52.822;6.666;2022-07-01T05:18:46;21.88;;;19.55;;
55210;SDS011;41082;52.822;6.666;2022-07-01T05:21:31;21.42;;;19.05;;
55210;SDS011;41082;52.822;6.666;2022-07-01T05:24:15;22.45;;;19.58;;
55210;SDS011;41082;52.822;6.666;2022-07-01T05:26:41;22.40;;;19.90;;
55210;SDS011;41082;52.822;6.666;2022-07-01T05:29:07;22.45;;;20.10;;
55210;SDS011;41082;52.822;6.666;2022-07-01T05:31:33;22.52;;;20.23;;
55210;SDS011;41082;52.822;6.666;2022-07-01T05:33:59;24.73;;;21.52;;
55210;SDS011;41082;52.822;6.666;2022-07-01T05:36:24;23.88;;;21.45;;
55210;SDS011;41082;52.822;6.666;2022-07-01T05:38:50;22.48;;;20.13;;
55210;SDS011;41082;52.822;6.666;2022-07-01T05:41:16;24.25;;;20.90;;
55210;SDS011;41082;52.822;6.666;2022-07-01T05:43:42;24.17;;;21.67;;
55210;SDS011;41082;52.822;6.666;2022-07-01T05:46:07;24.98;;;22.40;;
55210;SDS011;41082;52.822;6.666;2022-07-01T05:48:33;24.35;;;21.85;;
55210;SDS011;41082;52.822;6.666;2022-07-01T05:50:58;22.77;;;20.48;;
55210;SDS011;41082;52.822;6.666;2022-07-01T05:53:24;23.25;;;20.77;;
55210;SDS011;41082;52.822;6.666;2022-07-01T05:55:49;22.60;;;20.27;;
55210;SDS011;41082;52.822;6.666;2022-07-01T05:58:15;23.27;;;20.88;;
55210;SDS011;41082;52.822;6.666;2022-07-01T06:00:42;24.90;;;22.17;;
55210;SDS011;41082;52.822;6.666;2022-07-01T06:03:11;23.73;;;21.27;;
55210;SDS011;41082;52.822;6.666;2022-07-01T06:05:39;24.73;;;20.63;;
55210;SDS011;41082;52.822;6.666;2022-07-01T06:08:05;22.10;;;19.75;;
55210;SDS011;41082;52.822;6.666;2022-07-01T06:10:31;24.35;;;21.92;;
55210;SDS011;41082;52.822;6.666;2022-07-01T06:13:00;23.95;;;21.60;;
55210;SDS011;41082;52.822;6.666;2022-07-01T06:15:27;23.30;;;21.08;;
55210;SDS011;41082;52.822;6.666;2022-07-01T06:17:53;23.67;;;21.15;;
55210;SDS011;41082;52.822;6.666;2022-07-01T06:20:18;23.60;;;21.27;;
55210;SDS011;41082;52.822;6.666;2022-07-01T06:22:44;24.65;;;21.83;;
55210;SDS011;41082;52.822;6.666;2022-07-01T06:25:10;22.92;;;20.67;;
55210;SDS011;41082;52.822;6.666;2022-07-01T06:27:42;24.40;;;21.90;;
55210;SDS011;41082;52.822;6.666;2022-07-01T06:30:09;25.35;;;22.75;;
55210;SDS011;41082;52.822;6.666;2022-07-01T06:32:35;24.80;;;22.30;;
55210;SDS011;41082;52.822;6.666;2022-07-01T06:35:02;24.30;;;21.83;;
55210;SDS011;41082;52.822;6.666;2022-07-01T06:37:28;27.88;;;23.30;;
55210;SDS011;41082;52.822;6.666;2022-07-01T06:39:58;24.55;;;22.15;;
55210;SDS011;41082;52.822;6.666;2022-07-01T06:42:23;24.30;;;21.67;;
55210;SDS011;41082;52.822;6.666;2022-07-01T06:44:49;24.98;;;22.38;;
55210;SDS011;41082;52.822;6.666;2022-07-01T06:47:14;25.92;;;23.23;;
55210;SDS011;41082;52.822;6.666;2022-07-01T06:49:40;23.20;;;20.83;;
55210;SDS011;41082;52.822;6.666;2022-07-01T06:52:05;23.70;;;21.30;;
55210;SDS011;41082;52.822;6.666;2022-07-01T06:54:31;25.77;;;21.65;;
55210;SDS011;41082;52.822;6.666;2022-07-01T06:56:57;26.27;;;23.48;;
55210;SDS011;41082;52.822;6.666;2022-07-01T06:59:22;24.83;;;22.15;;
55210;SDS011;41082;52.822;6.666;2022-07-01T07:01:48;23.63;;;21.10;;
55210;SDS011;41082;52.822;6.666;2022-07-01T07:04:14;23.77;;;21.27;;
55210;SDS011;41082;52.822;6.666;2022-07-01T07:06:40;25.70;;;22.27;;
55210;SDS011;41082;52.822;6.666;2022-07-01T07:09:06;24.35;;;21.67;;
55210;SDS011;41082;52.822;6.666;2022-07-01T07:11:31;23.05;;;20.77;;
55210;SDS011;41082;52.822;6.666;2022-07-01T07:13:57;25.88;;;22.30;;
55210;SDS011;41082;52.822;6.666;2022-07-01T07:16:22;24.08;;;21.35;;
55210;SDS011;41082;52.822;6.666;2022-07-01T07:18:48;24.13;;;21.60;;
55210;SDS011;41082;52.822;6.666;2022-07-01T07:21:15;24.83;;;21.25;;
55210;SDS011;41082;52.822;6.666;2022-07-01T07:23:40;23.70;;;21.25;;
55210;SDS011;41082;52.822;6.666;2022-07-01T07:26:07;23.15;;;20.50;;
55210;SDS011;41082;52.822;6.666;2022-07-01T07:28:33;23.20;;;20.77;;
55210;SDS011;41082;52.822;6.666;2022-07-01T07:30:58;24.00;;;21.35;;
55210;SDS011;41082;52.822;6.666;2022-07-01T07:33:24;22.70;;;20.30;;
55210;SDS011;41082;52.822;6.666;2022-07-01T07:35:49;23.88;;;20.48;;
55210;SDS011;41082;52.822;6.666;2022-07-01T07:38:15;22.00;;;19.70;;
55210;SDS011;41082;52.822;6.666;2022-07-01T07:40:41;23.13;;;20.73;;
55210;SDS011;41082;52.822;6.666;2022-07-01T07:43:06;23.35;;;20.08;;
55210;SDS011;41082;52.822;6.666;2022-07-01T07:45:33;22.65;;;20.25;;
55210;SDS011;41082;52.822;6.666;2022-07-01T07:47:59;20.70;;;18.67;;
55210;SDS011;41082;52.822;6.666;2022-07-01T07:50:25;22.30;;;19.85;;
55210;SDS011;41082;52.822;6.666;2022-07-01T07:52:51;20.73;;;18.73;;
55210;SDS011;41082;52.822;6.666;2022-07-01T07:55:17;20.98;;;18.75;;
55210;SDS011;41082;52.822;6.666;2022-07-01T07:57:43;24.52;;;18.15;;
55210;SDS011;41082;52.822;6.666;2022-07-01T08:00:10;18.85;;;16.88;;
55210;SDS011;41082;52.822;6.666;2022-07-01T08:02:37;18.30;;;15.70;;
55210;SDS011;41082;52.822;6.666;2022-07-01T08:05:04;19.02;;;16.77;;
55210;SDS011;41082;52.822;6.666;2022-07-01T08:07:34;19.02;;;17.13;;
55210;SDS011;41082;52.822;6.666;2022-07-01T08:10:04;18.52;;;16.55;;
55210;SDS011;41082;52.822;6.666;2022-07-01T08:12:31;20.27;;;16.10;;
55210;SDS011;41082;52.822;6.666;2022-07-01T08:14:57;17.85;;;15.95;;
55210;SDS011;41082;52.822;6.666;2022-07-01T08:17:22;20.73;;;14.95;;
55210;SDS011;41082;52.822;6.666;2022-07-01T08:19:48;20.25;;;15.27;;
55210;SDS011;41082;52.822;6.666;2022-07-01T08:22:14;18.30;;;14.90;;
55210;SDS011;41082;52.822;6.666;2022-07-01T08:24:40;15.48;;;13.93;;
55210;SDS011;41082;52.822;6.666;2022-07-01T08:27:06;15.82;;;13.68;;
55210;SDS011;41082;52.822;6.666;2022-07-01T08:29:31;18.52;;;14.45;;
55210;SDS011;41082;52.822;6.666;2022-07-01T08:31:57;15.35;;;12.20;;
55210;SDS011;41082;52.822;6.666;2022-07-01T08:34:22;13.57;;;11.50;;
55210;SDS011;41082;52.822;6.666;2022-07-01T08:36:48;13.85;;;12.40;;
55210;SDS011;41082;52.822;6.666;2022-07-01T08:39:13;17.05;;;12.57;;
55210;SDS011;41082;52.822;6.666;2022-07-01T08:41:40;13.65;;;11.57;;
55210;SDS011;41082;52.822;6.666;2022-07-01T08:44:06;15.73;;;12.05;;
55210;SDS011;41082;52.822;6.666;2022-07-01T08:46:33;13.68;;;12.27;;
55210;SDS011;41082;52.822;6.666;2022-07-01T08:49:00;17.40;;;12.45;;
55210;SDS011;41082;52.822;6.666;2022-07-01T08:51:26;14.07;;;12.23;;
55210;SDS011;41082;52.822;6.666;2022-07-01T08:53:52;13.07;;;11.55;;
55210;SDS011;41082;52.822;6.666;2022-07-01T08:56:18;11.38;;;10.27;;
55210;SDS011;41082;52.822;6.666;2022-07-01T08:59:02;14.50;;;10.85;;
55210;SDS011;41082;52.822;6.666;2022-07-01T09:01:28;14.30;;;11.23;;
55210;SDS011;41082;52.822;6.666;2022-07-01T09:03:54;16.33;;;11.57;;
55210;SDS011;41082;52.822;6.666;2022-07-01T09:06:22;14.63;;;10.73;;
55210;SDS011;41082;52.822;6.666;2022-07-01T09:09:09;12.23;;;9.68;;
55210;SDS011;41082;52.822;6.666;2022-07-01T09:11:43;14.52;;;10.13;;
55210;SDS011;41082;52.822;6.666;2022-07-01T09:14:18;10.65;;;8.98;;
55210;SDS011;41082;52.822;6.666;2022-07-01T09:16:49;12.77;;;8.40;;
55210;SDS011;41082;52.822;6.666;2022-07-01T09:19:27;12.20;;;8.23;;
55210;SDS011;41082;52.822;6.666;2022-07-01T09:21:55;9.73;;;7.97;;
55210;SDS011;41082;52.822;6.666;2022-07-01T09:24:32;9.10;;;7.30;;
55210;SDS011;41082;52.822;6.666;2022-07-01T09:27:03;11.07;;;7.35;;
55210;SDS011;41082;52.822;6.666;2022-07-01T09:29:46;8.98;;;6.72;;
55210;SDS011;41082;52.822;6.666;2022-07-01T09:32:19;13.15;;;6.30;;
55210;SDS011;41082;52.822;6.666;2022-07-01T09:37:13;11.95;;;6.15;;
55210;SDS011;41082;52.822;6.666;2022-07-01T09:39:47;11.48;;;6.97;;
55210;SDS011;41082;52.822;6.666;2022-07-01T09:42:15;10.93;;;6.22;;
55210;SDS011;41082;52.822;6.666;2022-07-01T09:47:23;10.43;;;5.78;;
55210;SDS011;41082;52.822;6.666;2022-07-01T09:49:52;8.13;;;5.43;;
55210;SDS011;41082;52.822;6.666;2022-07-01T09:52:19;9.68;;;4.97;;
55210;SDS011;41082;52.822;6.666;2022-07-01T09:54:47;7.45;;;5.80;;
55210;SDS011;41082;52.822;6.666;2022-07-01T09:57:14;6.60;;;5.15;;
55210;SDS011;41082;52.822;6.666;2022-07-01T09:59:41;8.90;;;5.07;;
55210;SDS011;41082;52.822;6.666;2022-07-01T10:02:08;7.45;;;5.10;;
55210;SDS011;41082;52.822;6.666;2022-07-01T10:04:34;7.40;;;4.63;;
55210;SDS011;41082;52.822;6.666;2022-07-01T10:07:13;7.68;;;4.40;;
55210;SDS011;41082;52.822;6.666;2022-07-01T10:12:42;9.23;;;4.93;;
55210;SDS011;41082;52.822;6.666;2022-07-01T10:15:11;8.38;;;3.60;;
55210;SDS011;41082;52.822;6.666;2022-07-01T10:17:44;9.18;;;3.60;;
55210;SDS011;41082;52.822;6.666;2022-07-01T10:20:12;5.80;;;3.13;;
55210;SDS011;41082;52.822;6.666;2022-07-01T10:22:40;7.93;;;2.50;;
55210;SDS011;41082;52.822;6.666;2022-07-01T10:28:56;6.30;;;3.08;;
55210;SDS011;41082;52.822;6.666;2022-07-01T10:30:54;4.43;;;2.63;;
55210;SDS011;41082;52.822;6.666;2022-07-01T10:33:38;5.22;;;3.33;;
55210;SDS011;41082;52.822;6.666;2022-07-01T10:36:10;8.25;;;2.83;;
55210;SDS011;41082;52.822;6.666;2022-07-01T10:41:32;7.03;;;2.53;;
55210;SDS011;41082;52.822;6.666;2022-07-01T10:44:05;5.30;;;2.58;;
55210;SDS011;41082;52.822;6.666;2022-07-01T10:46:43;5.70;;;2.33;;
55210;SDS011;41082;52.822;6.666;2022-07-01T10:52:05;4.30;;;1.98;;
55210;SDS011;41082;52.822;6.666;2022-07-01T11:02:27;3.22;;;1.50;;
55210;SDS011;41082;52.822;6.666;2022-07-01T11:04:57;4.22;;;1.60;;
55210;SDS011;41082;52.822;6.666;2022-07-01T11:07:28;4.57;;;1.30;;
55210;SDS011;41082;52.822;6.666;2022-07-01T11:09:56;4.95;;;1.90;;
55210;SDS011;41082;52.822;6.666;2022-07-01T11:12:24;7.30;;;1.67;;
55210;SDS011;41082;52.822;6.666;2022-07-01T11:14:50;2.72;;;0.95;;
55210;SDS011;41082;52.822;6.666;2022-07-01T11:17:17;5.30;;;1.50;;
55210;SDS011;41082;52.822;6.666;2022-07-01T11:19:50;3.40;;;1.08;;
55210;SDS011;41082;52.822;6.666;2022-07-01T11:22:22;5.95;;;1.20;;
55210;SDS011;41082;52.822;6.666;2022-07-01T11:24:53;5.63;;;0.85;;
55210;SDS011;41082;52.822;6.666;2022-07-01T11:27:20;3.22;;;0.70;;
55210;SDS011;41082;52.822;6.666;2022-07-01T11:29:51;3.50;;;0.93;;
55210;SDS011;41082;52.822;6.666;2022-07-01T11:32:52;3.22;;;0.80;;
55210;SDS011;41082;52.822;6.666;2022-07-01T11:35:25;5.85;;;1.13;;
55210;SDS011;41082;52.822;6.666;2022-07-01T11:38:14;3.78;;;0.88;;
55210;SDS011;41082;52.822;6.666;2022-07-01T11:41:00;4.55;;;1.23;;
55210;SDS011;41082;52.822;6.666;2022-07-01T11:43:37;3.40;;;0.73;;
55210;SDS011;41082;52.822;6.666;2022-07-01T11:46:04;5.50;;;0.80;;
55210;SDS011;41082;52.822;6.666;2022-07-01T11:48:33;3.72;;;0.60;;
55210;SDS011;41082;52.822;6.666;2022-07-01T11:51:07;3.00;;;0.43;;
55210;SDS011;41082;52.822;6.666;2022-07-01T11:53:47;4.85;;;0.50;;
55210;SDS011;41082;52.822;6.666;2022-07-01T11:56:14;2.38;;;0.55;;
55210;SDS011;41082;52.822;6.666;2022-07-01T12:01:10;4.85;;;0.47;;
55210;SDS011;41082;52.822;6.666;2022-07-01T12:03:35;3.45;;;0.30;;
55210;SDS011;41082;52.822;6.666;2022-07-01T12:06:02;3.45;;;0.30;;
55210;SDS011;41082;52.822;6.666;2022-07-01T12:08:29;3.85;;;0.30;;
55210;SDS011;41082;52.822;6.666;2022-07-01T12:10:55;3.33;;;0.30;;
55210;SDS011;41082;52.822;6.666;2022-07-01T12:13:24;6.10;;;0.40;;
55210;SDS011;41082;52.822;6.666;2022-07-01T12:15:51;1.88;;;0.30;;
55210;SDS011;41082;52.822;6.666;2022-07-01T12:18:17;3.25;;;0.43;;
55210;SDS011;41082;52.822;6.666;2022-07-01T12:20:50;6.40;;;0.55;;
55210;SDS011;41082;52.822;6.666;2022-07-01T12:23:19;2.70;;;0.40;;
55210;SDS011;41082;52.822;6.666;2022-07-01T12:25:51;3.35;;;0.30;;
55210;SDS011;41082;52.822;6.666;2022-07-01T12:28:53;1.63;;;0.20;;
55210;SDS011;41082;52.822;6.666;2022-07-01T12:31:09;2.53;;;0.47;;
55210;SDS011;41082;52.822;6.666;2022-07-01T12:33:39;2.28;;;0.10;;
55210;SDS011;41082;52.822;6.666;2022-07-01T12:36:12;4.03;;;0.30;;
55210;SDS011;41082;52.822;6.666;2022-07-01T12:38:40;3.67;;;0.30;;
55210;SDS011;41082;52.822;6.666;2022-07-01T12:41:26;2.78;;;0.28;;
55210;SDS011;41082;52.822;6.666;2022-07-01T12:46:28;4.40;;;0.30;;
55210;SDS011;41082;52.822;6.666;2022-07-01T12:48:57;3.85;;;0.52;;
55210;SDS011;41082;52.822;6.666;2022-07-01T12:51:29;2.42;;;0.60;;
55210;SDS011;41082;52.822;6.666;2022-07-01T12:53:56;1.95;;;0.20;;
55210;SDS011;41082;52.822;6.666;2022-07-01T12:56:22;2.78;;;0.30;;
55210;SDS011;41082;52.822;6.666;2022-07-01T12:58:50;4.50;;;0.40;;
55210;SDS011;41082;52.822;6.666;2022-07-01T13:01:18;3.35;;;0.30;;
55210;SDS011;41082;52.822;6.666;2022-07-01T13:03:45;2.53;;;0.30;;
55210;SDS011;41082;52.822;6.666;2022-07-01T13:06:11;4.53;;;0.30;;
55210;SDS011;41082;52.822;6.666;2022-07-01T13:08:37;4.15;;;0.38;;
55210;SDS011;41082;52.822;6.666;2022-07-01T13:11:02;3.28;;;0.60;;
55210;SDS011;41082;52.822;6.666;2022-07-01T13:13:28;2.88;;;0.40;;
55210;SDS011;41082;52.822;6.666;2022-07-01T13:15:53;3.13;;;0.30;;
55210;SDS011;41082;52.822;6.666;2022-07-01T13:18:20;5.28;;;0.88;;
55210;SDS011;41082;52.822;6.666;2022-07-01T13:20:46;4.25;;;0.63;;
55210;SDS011;41082;52.822;6.666;2022-07-01T13:23:12;6.18;;;0.50;;
55210;SDS011;41082;52.822;6.666;2022-07-01T13:25:38;3.63;;;0.30;;
55210;SDS011;41082;52.822;6.666;2022-07-01T13:28:04;1.88;;;0.28;;
55210;SDS011;41082;52.822;6.666;2022-07-01T13:30:30;3.28;;;0.30;;
55210;SDS011;41082;52.822;6.666;2022-07-01T13:32:55;3.20;;;0.25;;
55210;SDS011;41082;52.822;6.666;2022-07-01T13:35:22;3.38;;;0.50;;
55210;SDS011;41082;52.822;6.666;2022-07-01T13:37:48;1.65;;;0.40;;
55210;SDS011;41082;52.822;6.666;2022-07-01T13:40:14;5.30;;;0.52;;
55210;SDS011;41082;52.822;6.666;2022-07-01T13:42:40;3.85;;;0.77;;
55210;SDS011;41082;52.822;6.666;2022-07-01T13:45:06;4.85;;;0.60;;
55210;SDS011;41082;52.822;6.666;2022-07-01T13:47:32;4.55;;;0.40;;
55210;SDS011;41082;52.822;6.666;2022-07-01T13:49:58;1.63;;;0.20;;
55210;SDS011;41082;52.822;6.666;2022-07-01T13:52:24;3.92;;;0.43;;
55210;SDS011;41082;52.822;6.666;2022-07-01T13:54:50;2.75;;;0.30;;
55210;SDS011;41082;52.822;6.666;2022-07-01T13:57:16;4.68;;;0.25;;
55210;SDS011;41082;52.822;6.666;2022-07-01T13:59:41;4.05;;;0.40;;
55210;SDS011;41082;52.822;6.666;2022-07-01T14:02:08;3.78;;;0.40;;
55210;SDS011;41082;52.822;6.666;2022-07-01T14:04:34;3.67;;;0.43;;
55210;SDS011;41082;52.822;6.666;2022-07-01T14:07:00;3.20;;;0.30;;
55210;SDS011;41082;52.822;6.666;2022-07-01T14:09:25;2.35;;;0.30;;
55210;SDS011;41082;52.822;6.666;2022-07-01T14:11:51;3.30;;;0.30;;
55210;SDS011;41082;52.822;6.666;2022-07-01T14:14:17;4.28;;;0.40;;
55210;SDS011;41082;52.822;6.666;2022-07-01T14:16:42;3.25;;;0.22;;
55210;SDS011;41082;52.822;6.666;2022-07-01T14:19:08;5.78;;;0.32;;
55210;SDS011;41082;52.822;6.666;2022-07-01T14:21:33;5.30;;;0.30;;
55210;SDS011;41082;52.822;6.666;2022-07-01T14:23:59;3.30;;;0.30;;
55210;SDS011;41082;52.822;6.666;2022-07-01T14:26:24;4.03;;;0.40;;
55210;SDS011;41082;52.822;6.666;2022-07-01T14:28:50;3.60;;;0.28;;
55210;SDS011;41082;52.822;6.666;2022-07-01T14:31:16;5.38;;;0.30;;
55210;SDS011;41082;52.822;6.666;2022-07-01T14:33:42;5.65;;;0.40;;
55210;SDS011;41082;52.822;6.666;2022-07-01T14:36:07;3.50;;;0.30;;
55210;SDS011;41082;52.822;6.666;2022-07-01T14:38:33;2.75;;;0.30;;
55210;SDS011;41082;52.822;6.666;2022-07-01T14:40:58;3.65;;;0.28;;
55210;SDS011;41082;52.822;6.666;2022-07-01T14:43:24;2.42;;;0.20;;
55210;SDS011;41082;52.822;6.666;2022-07-01T14:45:50;4.95;;;0.50;;
55210;SDS011;41082;52.822;6.666;2022-07-01T14:48:15;2.65;;;0.30;;
55210;SDS011;41082;52.822;6.666;2022-07-01T14:50:41;3.20;;;0.40;;
55210;SDS011;41082;52.822;6.666;2022-07-01T14:53:07;1.52;;;0.30;;
55210;SDS011;41082;52.822;6.666;2022-07-01T14:55:35;4.53;;;0.50;;
55210;SDS011;41082;52.822;6.666;2022-07-01T14:58:01;3.70;;;0.30;;
55210;SDS011;41082;52.822;6.666;2022-07-01T15:00:27;1.75;;;0.28;;
55210;SDS011;41082;52.822;6.666;2022-07-01T15:02:54;3.40;;;0.30;;
55210;SDS011;41082;52.822;6.666;2022-07-01T15:05:21;3.20;;;0.38;;
55210;SDS011;41082;52.822;6.666;2022-07-01T15:07:47;4.60;;;0.30;;
55210;SDS011;41082;52.822;6.666;2022-07-01T15:10:13;3.78;;;0.40;;